createdAt,value
2016-07-10T00:00:03.407Z,20.5
2016-07-10T00:00:13.401Z,20.5
2016-07-10T00:00:23.396Z,20.4
2016-07-10T00:00:33.393Z,20.4
2016-07-10T00:00:43.388Z,20.4
2016-07-10T00:00:53.384Z,20.5
2016-07-10T00:01:03.380Z,20.5
2016-07-10T00:01:13.375Z,20.4
2016-07-10T00:01:23.370Z,20.5
2016-07-10T00:01:33.365Z,20.4
2016-07-10T00:01:43.361Z,20.4
2016-07-10T00:01:53.357Z,20.5
2016-07-10T00:02:03.351Z,20.5
2016-07-10T00:02:13.348Z,20.5
2016-07-10T00:02:23.345Z,20.4
2016-07-10T00:02:33.339Z,20.4
2016-07-10T00:02:43.335Z,20.4
2016-07-10T00:02:53.330Z,20.3
2016-07-10T00:03:03.325Z,20.5
2016-07-10T00:03:13.320Z,20.4
2016-07-10T00:03:23.315Z,20.5
2016-07-10T00:03:33.311Z,20.5
2016-07-10T00:03:43.307Z,20.4
2016-07-10T00:03:53.303Z,20.4
2016-07-10T00:04:03.298Z,20.4
2016-07-10T00:04:13.291Z,20.3
2016-07-10T00:04:23.288Z,20.3
2016-07-10T00:04:33.284Z,20.4
2016-07-10T00:04:43.284Z,20.3
2016-07-10T00:04:53.274Z,20.4
2016-07-10T00:05:03.270Z,20.4
2016-07-10T00:05:13.270Z,20.4
2016-07-10T00:05:23.262Z,20.4
2016-07-10T00:05:33.262Z,20.4
2016-07-10T00:05:43.253Z,20.4
2016-07-10T00:05:53.249Z,20.3
2016-07-10T00:06:03.243Z,20.5
2016-07-10T00:06:13.239Z,20.4
2016-07-10T00:06:23.234Z,20.4
2016-07-10T00:06:33.231Z,20.4
2016-07-10T00:06:43.225Z,20.4
2016-07-10T00:06:53.221Z,20.4
2016-07-10T00:07:03.216Z,20.4
2016-07-10T00:07:13.213Z,20.4
2016-07-10T00:07:23.208Z,20.4
2016-07-10T00:07:33.203Z,20.4
2016-07-10T00:07:43.198Z,20.4
2016-07-10T00:07:53.193Z,20.4
2016-07-10T00:08:03.191Z,20.3
2016-07-10T00:08:13.184Z,20.4
2016-07-10T00:08:23.179Z,20.3
2016-07-10T00:08:33.176Z,20.5
2016-07-10T00:08:43.170Z,20.4
2016-07-10T00:08:53.166Z,20.4
2016-07-10T00:09:03.163Z,20.4
2016-07-10T00:09:13.156Z,20.4
2016-07-10T00:09:23.152Z,20.4
2016-07-10T00:09:33.147Z,20.4
2016-07-10T00:09:43.142Z,20.4
2016-07-10T00:09:53.139Z,20.4
2016-07-10T00:10:03.134Z,20.3
2016-07-10T00:10:13.130Z,20.4
2016-07-10T00:10:23.124Z,20.4
2016-07-10T00:10:33.121Z,20.4
2016-07-10T00:10:43.116Z,20.4
2016-07-10T00:10:53.111Z,20.4
2016-07-10T00:11:03.107Z,20.4
2016-07-10T00:11:13.104Z,20.4
2016-07-10T00:11:23.097Z,20.4
2016-07-10T00:11:33.093Z,20.3
2016-07-10T00:11:43.089Z,20.4
2016-07-10T00:11:53.084Z,20.4
2016-07-10T00:12:03.081Z,20.4
2016-07-10T00:12:13.074Z,20.3
2016-07-10T00:12:23.071Z,20.4
2016-07-10T00:12:33.065Z,20.4
2016-07-10T00:12:43.061Z,20.4
2016-07-10T00:12:53.057Z,20.4
2016-07-10T00:13:03.053Z,20.4
2016-07-10T00:13:13.088Z,20.3
2016-07-10T00:13:23.043Z,20.4
2016-07-10T00:13:33.038Z,20.3
2016-07-10T00:13:43.033Z,20.3
2016-07-10T00:13:53.029Z,20.4
2016-07-10T00:14:03.024Z,20.4
2016-07-10T00:14:13.020Z,20.4
2016-07-10T00:14:23.015Z,20.4
2016-07-10T00:14:33.011Z,20.4
2016-07-10T00:14:43.005Z,20.4
2016-07-10T00:14:53.001Z,20.4
2016-07-10T00:15:02.998Z,20.4
2016-07-10T00:15:12.992Z,20.3
2016-07-10T00:15:22.988Z,20.3
2016-07-10T00:15:32.983Z,20.4
2016-07-10T00:15:42.979Z,20.4
2016-07-10T00:15:52.974Z,20.4
2016-07-10T00:16:02.974Z,20.3
2016-07-10T00:16:12.965Z,20.4
2016-07-10T00:16:22.963Z,20.3
2016-07-10T00:16:32.959Z,20.4
2016-07-10T00:16:42.952Z,20.4
2016-07-10T00:16:52.948Z,20.4
2016-07-10T00:17:02.945Z,20.4
2016-07-10T00:17:12.940Z,20.4
2016-07-10T00:17:22.935Z,20.4
2016-07-10T00:17:32.929Z,20.3
2016-07-10T00:17:42.926Z,20.4
2016-07-10T00:17:52.921Z,20.4
2016-07-10T00:18:02.916Z,20.4
2016-07-10T00:18:12.911Z,20.4
2016-07-10T00:18:22.908Z,20.3
2016-07-10T00:18:32.902Z,20.3
2016-07-10T00:18:42.898Z,20.4
2016-07-10T00:18:52.893Z,20.3
2016-07-10T00:19:02.888Z,20.4
2016-07-10T00:19:12.883Z,20.3
2016-07-10T00:19:22.879Z,20.3
2016-07-10T00:19:32.874Z,20.3
2016-07-10T00:19:42.871Z,20.3
2016-07-10T00:19:52.865Z,20.3
2016-07-10T00:20:02.861Z,20.3
2016-07-10T00:20:12.856Z,20.3
2016-07-10T00:20:22.852Z,20.3
2016-07-10T00:20:32.847Z,20.3
2016-07-10T00:20:42.843Z,20.4
2016-07-10T00:20:52.839Z,20.3
2016-07-10T00:21:02.835Z,20.3
2016-07-10T00:21:12.829Z,20.4
2016-07-10T00:21:22.827Z,20.3
2016-07-10T00:21:32.821Z,20.3
2016-07-10T00:21:42.816Z,20.3
2016-07-10T00:21:52.812Z,20.4
2016-07-10T00:22:02.806Z,20.3
2016-07-10T00:22:12.803Z,20.3
2016-07-10T00:22:22.798Z,20.3
2016-07-10T00:22:32.794Z,20.3
2016-07-10T00:22:42.790Z,20.3
2016-07-10T00:22:52.783Z,20.3
2016-07-10T00:23:02.780Z,20.3
2016-07-10T00:23:12.775Z,20.4
2016-07-10T00:23:22.770Z,20.3
2016-07-10T00:23:32.766Z,20.3
2016-07-10T00:23:42.761Z,20.4
2016-07-10T00:23:52.755Z,20.4
2016-07-10T00:24:02.751Z,20.3
2016-07-10T00:24:12.748Z,20.3
2016-07-10T00:24:22.742Z,20.3
2016-07-10T00:24:32.740Z,20.3
2016-07-10T00:24:42.734Z,20.4
2016-07-10T00:24:52.730Z,20.3
2016-07-10T00:25:02.725Z,20.3
2016-07-10T00:25:12.720Z,20.3
2016-07-10T00:25:22.715Z,20.3
2016-07-10T00:25:32.711Z,20.3
2016-07-10T00:25:42.707Z,20.3
2016-07-10T00:25:52.704Z,20.3
2016-07-10T00:26:02.697Z,20.4
2016-07-10T00:26:12.694Z,20.3
2016-07-10T00:26:22.690Z,20.3
2016-07-10T00:26:32.683Z,20.3
2016-07-10T00:26:42.680Z,20.3
2016-07-10T00:26:52.675Z,20.2
2016-07-10T00:27:02.671Z,20.3
2016-07-10T00:27:12.667Z,20.3
2016-07-10T00:27:22.661Z,20.3
2016-07-10T00:27:32.658Z,20.3
2016-07-10T00:27:42.653Z,20.3
2016-07-10T00:27:52.646Z,20.3
2016-07-10T00:28:02.641Z,20.3
2016-07-10T00:28:12.638Z,20.3
2016-07-10T00:28:22.634Z,20.3
2016-07-10T00:28:32.629Z,20.2
2016-07-10T00:28:42.623Z,20.3
2016-07-10T00:28:52.620Z,20.3
2016-07-10T00:29:02.615Z,20.3
2016-07-10T00:29:12.610Z,20.3
2016-07-10T00:29:22.607Z,20.3
2016-07-10T00:29:32.601Z,20.4
2016-07-10T00:29:42.597Z,20.2
2016-07-10T00:29:52.593Z,20.3
2016-07-10T00:30:02.588Z,20.4
2016-07-10T00:30:12.584Z,20.3
2016-07-10T00:30:22.580Z,20.3
2016-07-10T00:30:32.584Z,20.3
2016-07-10T00:30:42.570Z,20.3
2016-07-10T00:30:52.565Z,20.3
2016-07-10T00:31:02.560Z,20.3
2016-07-10T00:31:12.557Z,20.3
2016-07-10T00:31:22.552Z,20.3
2016-07-10T00:31:32.550Z,20.3
2016-07-10T00:31:42.543Z,20.3
2016-07-10T00:31:52.538Z,20.3
2016-07-10T00:32:02.533Z,20.4
2016-07-10T00:32:12.530Z,20.3
2016-07-10T00:32:22.524Z,20.3
2016-07-10T00:32:32.520Z,20.3
2016-07-10T00:32:42.513Z,20.3
2016-07-10T00:32:52.511Z,20.3
2016-07-10T00:33:02.506Z,20.3
2016-07-10T00:33:12.502Z,20.3
2016-07-10T00:33:22.498Z,20.3
2016-07-10T00:33:32.492Z,20.4
2016-07-10T00:33:42.489Z,20.3
2016-07-10T00:33:52.485Z,20.2
2016-07-10T00:34:02.478Z,20.3
2016-07-10T00:34:12.472Z,20.3
2016-07-10T00:34:22.471Z,20.3
2016-07-10T00:34:32.465Z,20.2
2016-07-10T00:34:42.461Z,20.3
2016-07-10T00:34:52.455Z,20.3
2016-07-10T00:35:02.452Z,20.4
2016-07-10T00:35:12.447Z,20.4
2016-07-10T00:35:22.442Z,20.4
2016-07-10T00:35:32.437Z,20.3
2016-07-10T00:35:42.434Z,20.3
2016-07-10T00:35:52.430Z,20.4
2016-07-10T00:36:02.425Z,20.3
2016-07-10T00:36:12.421Z,20.3
2016-07-10T00:36:22.415Z,20.3
2016-07-10T00:36:32.411Z,20.3
2016-07-10T00:36:42.406Z,20.3
2016-07-10T00:36:52.402Z,20.3
2016-07-10T00:37:02.397Z,20.3
2016-07-10T00:37:12.392Z,20.2
2016-07-10T00:37:22.389Z,20.3
2016-07-10T00:37:32.383Z,20.3
2016-07-10T00:37:42.378Z,20.3
2016-07-10T00:37:52.374Z,20.3
2016-07-10T00:38:02.369Z,20.3
2016-07-10T00:38:12.365Z,20.3
2016-07-10T00:38:22.360Z,20.3
2016-07-10T00:38:32.355Z,20.4
2016-07-10T00:38:42.351Z,20.3
2016-07-10T00:38:52.345Z,20.3
2016-07-10T00:39:02.342Z,20.3
2016-07-10T00:39:12.339Z,20.3
2016-07-10T00:39:22.333Z,20.3
2016-07-10T00:39:32.329Z,20.3
2016-07-10T00:39:42.325Z,20.3
2016-07-10T00:39:52.319Z,20.3
2016-07-10T00:40:02.315Z,20.3
2016-07-10T00:40:12.310Z,20.3
2016-07-10T00:40:22.306Z,20.2
2016-07-10T00:40:32.302Z,20.3
2016-07-10T00:40:42.297Z,20.3
2016-07-10T00:40:52.292Z,20.3
2016-07-10T00:41:02.290Z,20.3
2016-07-10T00:41:12.284Z,20.3
2016-07-10T00:41:22.279Z,20.3
2016-07-10T00:41:32.273Z,20.3
2016-07-10T00:41:42.275Z,20.3
2016-07-10T00:41:52.265Z,20.2
2016-07-10T00:42:02.260Z,20.3
2016-07-10T00:42:12.256Z,20.3
2016-07-10T00:42:22.252Z,20.3
2016-07-10T00:42:32.247Z,20.3
2016-07-10T00:42:42.242Z,20.3
2016-07-10T00:42:52.235Z,20.2
2016-07-10T00:43:02.232Z,20.3
2016-07-10T00:43:12.229Z,20.3
2016-07-10T00:43:22.225Z,20.3
2016-07-10T00:43:32.220Z,20.3
2016-07-10T00:43:42.215Z,20.2
2016-07-10T00:43:52.209Z,20.3
2016-07-10T00:44:02.206Z,20.3
2016-07-10T00:44:12.200Z,20.3
2016-07-10T00:44:22.195Z,20.3
2016-07-10T00:44:32.192Z,20.3
2016-07-10T00:44:42.187Z,20.3
2016-07-10T00:44:52.183Z,20.3
2016-07-10T00:45:02.179Z,20.3
2016-07-10T00:45:12.174Z,20.2
2016-07-10T00:45:22.169Z,20.3
2016-07-10T00:45:32.164Z,20.3
2016-07-10T00:45:42.160Z,20.3
2016-07-10T00:45:52.156Z,20.3
2016-07-10T00:46:02.150Z,20.4
2016-07-10T00:46:12.146Z,20.3
2016-07-10T00:46:22.141Z,20.3
2016-07-10T00:46:32.137Z,20.3
2016-07-10T00:46:42.134Z,20.3
2016-07-10T00:46:52.127Z,20.4
2016-07-10T00:47:02.124Z,20.3
2016-07-10T00:47:12.119Z,20.2
2016-07-10T00:47:22.124Z,20.2
2016-07-10T00:47:32.111Z,20.3
2016-07-10T00:47:42.105Z,20.2
2016-07-10T00:47:52.099Z,20.3
2016-07-10T00:48:02.096Z,20.3
2016-07-10T00:48:12.091Z,20.3
2016-07-10T00:48:22.087Z,20.2
2016-07-10T00:48:32.083Z,20.2
2016-07-10T00:48:42.078Z,20.3
2016-07-10T00:48:52.072Z,20.2
2016-07-10T00:49:02.080Z,20.3
2016-07-10T00:49:12.063Z,20.3
2016-07-10T00:49:22.059Z,20.3
2016-07-10T00:49:32.054Z,20.3
2016-07-10T00:49:42.072Z,20.3
2016-07-10T00:49:52.070Z,20.3
2016-07-10T00:50:02.058Z,20.3
2016-07-10T00:50:12.052Z,20.3
2016-07-10T00:50:22.033Z,20.3
2016-07-10T00:50:32.027Z,20.3
2016-07-10T00:50:42.024Z,20.3
2016-07-10T00:50:52.017Z,20.3
2016-07-10T00:51:02.013Z,20.2
2016-07-10T00:51:12.011Z,20.3
2016-07-10T00:51:22.004Z,20.3
2016-07-10T00:51:32.000Z,20.3
2016-07-10T00:51:41.996Z,20.3
2016-07-10T00:51:51.991Z,20.3
2016-07-10T00:52:01.987Z,20.2
2016-07-10T00:52:11.982Z,20.3
2016-07-10T00:52:21.977Z,20.3
2016-07-10T00:52:31.973Z,20.2
2016-07-10T00:52:41.968Z,20.2
2016-07-10T00:52:51.964Z,20.3
2016-07-10T00:53:01.959Z,20.2
2016-07-10T00:53:11.954Z,20.3
2016-07-10T00:53:21.950Z,20.3
2016-07-10T00:53:31.945Z,20.2
2016-07-10T00:53:41.942Z,20.3
2016-07-10T00:53:51.935Z,20.3
2016-07-10T00:54:01.930Z,20.2
2016-07-10T00:54:11.927Z,20.3
2016-07-10T00:54:21.923Z,20.2
2016-07-10T00:54:31.918Z,20.2
2016-07-10T00:54:41.914Z,20.3
2016-07-10T00:54:51.909Z,20.2
2016-07-10T00:55:01.904Z,20.3
2016-07-10T00:55:11.901Z,20.2
2016-07-10T00:55:21.894Z,20.3
2016-07-10T00:55:31.891Z,20.3
2016-07-10T00:55:41.887Z,20.3
2016-07-10T00:55:51.882Z,20.2
2016-07-10T00:56:01.877Z,20.3
2016-07-10T00:56:11.873Z,20.3
2016-07-10T00:56:21.867Z,20.3
2016-07-10T00:56:31.865Z,20.2
2016-07-10T00:56:41.874Z,20.3
2016-07-10T00:56:51.853Z,20.3
2016-07-10T00:57:01.850Z,20.3
2016-07-10T00:57:11.844Z,20.2
2016-07-10T00:57:21.840Z,20.3
2016-07-10T00:57:31.834Z,20.3
2016-07-10T00:57:41.832Z,20.3
2016-07-10T00:57:51.826Z,20.2
2016-07-10T00:58:01.824Z,20.2
2016-07-10T00:58:11.833Z,20.2
2016-07-10T00:58:21.827Z,20.2
2016-07-10T00:58:31.808Z,20.3
2016-07-10T00:58:41.818Z,20.3
2016-07-10T00:58:51.798Z,20.2
2016-07-10T00:59:01.795Z,20.2
2016-07-10T00:59:11.791Z,20.3
2016-07-10T00:59:21.785Z,20.3
2016-07-10T00:59:31.781Z,20.3
2016-07-10T00:59:41.776Z,20.2
2016-07-10T00:59:51.771Z,20.3
2016-07-10T01:00:01.768Z,20.3
2016-07-10T01:00:11.763Z,20.2
2016-07-10T01:00:21.759Z,20.3
2016-07-10T01:00:31.759Z,20.3
2016-07-10T01:00:41.749Z,20.2
2016-07-10T01:00:51.745Z,20.2
2016-07-10T01:01:01.741Z,20.2
2016-07-10T01:01:11.734Z,20.3
2016-07-10T01:01:21.730Z,20.3
2016-07-10T01:01:31.726Z,20.3
2016-07-10T01:01:41.723Z,20.3
2016-07-10T01:01:51.717Z,20.3
2016-07-10T01:02:01.712Z,20.2
2016-07-10T01:02:11.708Z,20.3
2016-07-10T01:02:21.704Z,20.2
2016-07-10T01:02:31.698Z,20.2
2016-07-10T01:02:41.694Z,20.2
2016-07-10T01:02:51.690Z,20.2
2016-07-10T01:03:01.684Z,20.2
2016-07-10T01:03:11.681Z,20.3
2016-07-10T01:03:21.674Z,20.2
2016-07-10T01:03:31.670Z,20.3
2016-07-10T01:03:41.666Z,20.2
2016-07-10T01:03:51.662Z,20.2
2016-07-10T01:04:01.659Z,20.3
2016-07-10T01:04:11.652Z,20.3
2016-07-10T01:04:21.648Z,20.3
2016-07-10T01:04:31.644Z,20.2
2016-07-10T01:04:41.638Z,20.2
2016-07-10T01:04:51.635Z,20.2
2016-07-10T01:05:01.632Z,20.2
2016-07-10T01:05:11.626Z,20.3
2016-07-10T01:05:21.622Z,20.2
2016-07-10T01:05:31.617Z,20.3
2016-07-10T01:05:41.612Z,20.3
2016-07-10T01:05:51.608Z,20.3
2016-07-10T01:06:01.602Z,20.2
2016-07-10T01:06:11.599Z,20.2
2016-07-10T01:06:21.594Z,20.3
2016-07-10T01:06:31.589Z,20.3
2016-07-10T01:06:41.584Z,20.2
2016-07-10T01:06:51.580Z,20.3
2016-07-10T01:07:01.576Z,20.2
2016-07-10T01:07:11.573Z,20.2
2016-07-10T01:07:21.566Z,20.2
2016-07-10T01:07:31.561Z,20.2
2016-07-10T01:07:41.557Z,20.2
2016-07-10T01:07:51.552Z,20.2
2016-07-10T01:08:01.548Z,20.2
2016-07-10T01:08:11.542Z,20.2
2016-07-10T01:08:21.538Z,20.3
2016-07-10T01:08:31.535Z,20.2
2016-07-10T01:08:41.530Z,20.2
2016-07-10T01:08:51.525Z,20.2
2016-07-10T01:09:01.522Z,20.1
2016-07-10T01:09:11.517Z,20.1
2016-07-10T01:09:21.511Z,20.2
2016-07-10T01:09:31.507Z,20.2
2016-07-10T01:09:41.504Z,20.2
2016-07-10T01:09:51.509Z,20.2
2016-07-10T01:10:01.493Z,20.1
2016-07-10T01:10:11.489Z,20.2
2016-07-10T01:10:21.485Z,20.1
2016-07-10T01:10:31.491Z,20.1
2016-07-10T01:10:41.475Z,20.2
2016-07-10T01:10:51.470Z,20.2
2016-07-10T01:11:01.466Z,20.1
2016-07-10T01:11:11.462Z,20.1
2016-07-10T01:11:21.456Z,20.2
2016-07-10T01:11:31.452Z,20.2
2016-07-10T01:11:41.448Z,20.2
2016-07-10T01:11:51.443Z,20.2
2016-07-10T01:12:01.437Z,20.2
2016-07-10T01:12:11.432Z,20.2
2016-07-10T01:12:21.428Z,20.2
2016-07-10T01:12:31.425Z,20.2
2016-07-10T01:12:41.420Z,20.1
2016-07-10T01:12:51.415Z,20.1
2016-07-10T01:13:01.411Z,20.2
2016-07-10T01:13:11.407Z,20.2
2016-07-10T01:13:21.401Z,20.2
2016-07-10T01:13:31.397Z,20.2
2016-07-10T01:13:41.392Z,20.2
2016-07-10T01:13:51.388Z,20.1
2016-07-10T01:14:01.383Z,20.2
2016-07-10T01:14:11.384Z,20.1
2016-07-10T01:14:21.380Z,20.1
2016-07-10T01:14:31.371Z,20.1
2016-07-10T01:14:41.365Z,20.1
2016-07-10T01:14:51.361Z,20.1
2016-07-10T01:15:01.357Z,20.1
2016-07-10T01:15:11.351Z,20.1
2016-07-10T01:15:21.346Z,20.1
2016-07-10T01:15:31.342Z,20.1
2016-07-10T01:15:41.338Z,20.2
2016-07-10T01:15:51.334Z,20.1
2016-07-10T01:16:01.329Z,20.1
2016-07-10T01:16:11.324Z,20.1
2016-07-10T01:16:21.319Z,20.2
2016-07-10T01:16:31.315Z,20.1
2016-07-10T01:16:41.309Z,20.1
2016-07-10T01:16:51.305Z,20.2
2016-07-10T01:17:01.301Z,20.1
2016-07-10T01:17:11.296Z,20.1
2016-07-10T01:17:21.292Z,20.1
2016-07-10T01:17:31.286Z,20.1
2016-07-10T01:17:41.282Z,20.2
2016-07-10T01:17:51.278Z,20.1
2016-07-10T01:18:01.274Z,20.1
2016-07-10T01:18:11.270Z,20.1
2016-07-10T01:18:21.265Z,20.1
2016-07-10T01:18:31.259Z,20.1
2016-07-10T01:18:41.255Z,20.1
2016-07-10T01:18:51.250Z,20.1
2016-07-10T01:19:01.246Z,20.1
2016-07-10T01:19:11.242Z,20
2016-07-10T01:19:21.236Z,20
2016-07-10T01:19:31.234Z,20.1
2016-07-10T01:19:41.228Z,20.1
2016-07-10T01:19:51.223Z,20.1
2016-07-10T01:20:01.218Z,20.2
2016-07-10T01:20:11.213Z,20.1
2016-07-10T01:20:21.210Z,20.1
2016-07-10T01:20:31.205Z,20.1
2016-07-10T01:20:41.200Z,20.1
2016-07-10T01:20:51.197Z,20.1
2016-07-10T01:21:01.191Z,20.2
2016-07-10T01:21:11.187Z,20.1
2016-07-10T01:21:21.187Z,20.2
2016-07-10T01:21:31.178Z,20.1
2016-07-10T01:21:41.173Z,20.1
2016-07-10T01:21:51.168Z,20.1
2016-07-10T01:22:01.162Z,20.1
2016-07-10T01:22:11.164Z,20.2
2016-07-10T01:22:21.155Z,20.2
2016-07-10T01:22:31.150Z,20.1
2016-07-10T01:22:41.145Z,20.2
2016-07-10T01:22:51.141Z,20
2016-07-10T01:23:01.138Z,20.1
2016-07-10T01:23:11.132Z,20.1
2016-07-10T01:23:21.126Z,20.1
2016-07-10T01:23:31.123Z,20.1
2016-07-10T01:23:41.119Z,20
2016-07-10T01:23:51.115Z,20.1
2016-07-10T01:24:01.109Z,20.1
2016-07-10T01:24:11.104Z,20.1
2016-07-10T01:24:21.118Z,20.1
2016-07-10T01:24:31.096Z,20.1
2016-07-10T01:24:41.090Z,20.1
2016-07-10T01:24:51.086Z,20.1
2016-07-10T01:25:01.082Z,20.1
2016-07-10T01:25:11.076Z,20.1
2016-07-10T01:25:21.077Z,20.1
2016-07-10T01:25:31.067Z,20.1
2016-07-10T01:25:41.065Z,20.1
2016-07-10T01:25:51.058Z,20.1
2016-07-10T01:26:01.054Z,20.1
2016-07-10T01:26:11.050Z,20.1
2016-07-10T01:26:21.045Z,20.2
2016-07-10T01:26:31.042Z,20.1
2016-07-10T01:26:41.035Z,20.1
2016-07-10T01:26:51.030Z,20.1
2016-07-10T01:27:01.026Z,20
2016-07-10T01:27:11.023Z,20.1
2016-07-10T01:27:21.019Z,20.1
2016-07-10T01:27:31.012Z,20.1
2016-07-10T01:27:41.007Z,20.2
2016-07-10T01:27:51.003Z,20.1
2016-07-10T01:28:00.998Z,20.2
2016-07-10T01:28:10.994Z,20.1
2016-07-10T01:28:20.991Z,20.1
2016-07-10T01:28:30.986Z,20
2016-07-10T01:28:40.980Z,20.2
2016-07-10T01:28:50.977Z,20
2016-07-10T01:29:00.973Z,20.1
2016-07-10T01:29:10.967Z,20.1
2016-07-10T01:29:20.963Z,20.1
2016-07-10T01:29:30.958Z,20.1
2016-07-10T01:29:40.953Z,20
2016-07-10T01:29:50.949Z,20.1
2016-07-10T01:30:00.943Z,20.1
2016-07-10T01:30:10.939Z,20.1
2016-07-10T01:30:20.935Z,20.1
2016-07-10T01:30:30.929Z,20.1
2016-07-10T01:30:40.924Z,20.1
2016-07-10T01:30:50.921Z,20.1
2016-07-10T01:31:00.917Z,20.1
2016-07-10T01:31:10.912Z,20.1
2016-07-10T01:31:20.907Z,20
2016-07-10T01:31:30.901Z,20.1
2016-07-10T01:31:40.898Z,20.1
2016-07-10T01:31:50.893Z,20.1
2016-07-10T01:32:00.889Z,20.1
2016-07-10T01:32:10.884Z,20.2
2016-07-10T01:32:20.881Z,20.1
2016-07-10T01:32:30.876Z,20.1
2016-07-10T01:32:40.870Z,20.1
2016-07-10T01:32:50.867Z,20.1
2016-07-10T01:33:00.861Z,20.1
2016-07-10T01:33:10.856Z,20.1
2016-07-10T01:33:20.852Z,20.1
2016-07-10T01:33:30.848Z,20.1
2016-07-10T01:33:40.843Z,20
2016-07-10T01:33:50.840Z,20.1
2016-07-10T01:34:00.833Z,20.1
2016-07-10T01:34:10.829Z,20.1
2016-07-10T01:34:20.825Z,20.1
2016-07-10T01:34:30.819Z,20.1
2016-07-10T01:34:40.816Z,20.1
2016-07-10T01:34:50.809Z,20.1
2016-07-10T01:35:00.806Z,20
2016-07-10T01:35:10.802Z,20.1
2016-07-10T01:35:20.796Z,20.1
2016-07-10T01:35:30.793Z,20.1
2016-07-10T01:35:40.788Z,20.1
2016-07-10T01:35:50.783Z,20.2
2016-07-10T01:36:00.778Z,20
2016-07-10T01:36:10.773Z,20
2016-07-10T01:36:20.769Z,20.1
2016-07-10T01:36:30.764Z,20.1
2016-07-10T01:36:40.761Z,20.1
2016-07-10T01:36:50.755Z,20.1
2016-07-10T01:37:00.752Z,20.1
2016-07-10T01:37:10.746Z,20.1
2016-07-10T01:37:20.744Z,20.1
2016-07-10T01:37:30.737Z,20.1
2016-07-10T01:37:40.733Z,20
2016-07-10T01:37:50.728Z,20.1
2016-07-10T01:38:00.724Z,20.1
2016-07-10T01:38:10.719Z,20.1
2016-07-10T01:38:20.715Z,20.1
2016-07-10T01:38:30.711Z,20.1
2016-07-10T01:38:40.707Z,20.1
2016-07-10T01:38:50.700Z,20
2016-07-10T01:39:00.696Z,20.1
2016-07-10T01:39:10.692Z,20
2016-07-10T01:39:20.685Z,20
2016-07-10T01:39:30.681Z,20
2016-07-10T01:39:40.679Z,20.1
2016-07-10T01:39:50.673Z,19.9
2016-07-10T01:40:00.669Z,20
2016-07-10T01:40:10.663Z,20
2016-07-10T01:40:20.660Z,20.1
2016-07-10T01:40:30.655Z,20
2016-07-10T01:40:40.650Z,20.1
2016-07-10T01:40:50.644Z,20
2016-07-10T01:41:00.641Z,20
2016-07-10T01:41:10.636Z,20
2016-07-10T01:41:20.632Z,20
2016-07-10T01:41:30.627Z,20
2016-07-10T01:41:40.622Z,20.1
2016-07-10T01:41:50.619Z,20.1
2016-07-10T01:42:00.615Z,20
2016-07-10T01:42:10.611Z,20
2016-07-10T01:42:20.606Z,20
2016-07-10T01:42:30.600Z,20
2016-07-10T01:42:40.595Z,20
2016-07-10T01:42:50.589Z,20
2016-07-10T01:43:00.586Z,20
2016-07-10T01:43:10.583Z,20.1
2016-07-10T01:43:20.577Z,20
2016-07-10T01:43:30.573Z,20
2016-07-10T01:43:40.569Z,20
2016-07-10T01:43:50.561Z,20
2016-07-10T01:44:00.557Z,20
2016-07-10T01:44:10.553Z,20
2016-07-10T01:44:20.548Z,20
2016-07-10T01:44:30.545Z,20.1
2016-07-10T01:44:40.540Z,20.1
2016-07-10T01:44:50.535Z,20.1
2016-07-10T01:45:00.532Z,20
2016-07-10T01:45:10.526Z,19.9
2016-07-10T01:45:20.523Z,20
2016-07-10T01:45:30.517Z,20
2016-07-10T01:45:40.511Z,20.1
2016-07-10T01:45:50.508Z,20
2016-07-10T01:46:00.503Z,20
2016-07-10T01:46:10.499Z,19.9
2016-07-10T01:46:20.495Z,20
2016-07-10T01:46:30.491Z,20
2016-07-10T01:46:40.486Z,20
2016-07-10T01:46:50.480Z,20.1
2016-07-10T01:47:00.477Z,19.9
2016-07-10T01:47:10.471Z,20
2016-07-10T01:47:20.466Z,19.9
2016-07-10T01:47:30.463Z,19.9
2016-07-10T01:47:40.459Z,20
2016-07-10T01:47:50.453Z,19.9
2016-07-10T01:48:00.449Z,20
2016-07-10T01:48:10.444Z,19.9
2016-07-10T01:48:20.440Z,19.9
2016-07-10T01:48:30.435Z,19.9
2016-07-10T01:48:40.430Z,19.9
2016-07-10T01:48:50.425Z,19.9
2016-07-10T01:49:00.421Z,20
2016-07-10T01:49:10.416Z,20
2016-07-10T01:49:20.411Z,19.9
2016-07-10T01:49:30.407Z,19.9
2016-07-10T01:49:40.404Z,19.9
2016-07-10T01:49:50.398Z,19.9
2016-07-10T01:50:00.393Z,19.9
2016-07-10T01:50:10.389Z,19.9
2016-07-10T01:50:20.384Z,20
2016-07-10T01:50:30.379Z,19.9
2016-07-10T01:50:40.377Z,19.9
2016-07-10T01:50:50.369Z,20
2016-07-10T01:51:00.366Z,19.9
2016-07-10T01:51:10.361Z,19.9
2016-07-10T01:51:20.356Z,19.9
2016-07-10T01:51:30.353Z,19.9
2016-07-10T01:51:40.349Z,19.9
2016-07-10T01:51:50.342Z,20
2016-07-10T01:52:00.339Z,19.9
2016-07-10T01:52:10.333Z,19.9
2016-07-10T01:52:20.330Z,20
2016-07-10T01:52:30.326Z,20
2016-07-10T01:52:40.319Z,19.9
2016-07-10T01:52:50.315Z,20
2016-07-10T01:53:00.311Z,19.9
2016-07-10T01:53:10.305Z,20
2016-07-10T01:53:20.301Z,20
2016-07-10T01:53:30.297Z,19.9
2016-07-10T01:53:40.292Z,20
2016-07-10T01:53:50.288Z,19.9
2016-07-10T01:54:00.283Z,19.9
2016-07-10T01:54:10.278Z,19.9
2016-07-10T01:54:20.274Z,19.9
2016-07-10T01:54:30.273Z,20
2016-07-10T01:54:40.265Z,20
2016-07-10T01:54:50.260Z,19.9
2016-07-10T01:55:00.256Z,19.9
2016-07-10T01:55:10.251Z,19.9
2016-07-10T01:55:20.247Z,19.9
2016-07-10T01:55:30.242Z,20
2016-07-10T01:55:40.237Z,20
2016-07-10T01:55:50.233Z,20
2016-07-10T01:56:00.229Z,19.9
2016-07-10T01:56:10.223Z,19.9
2016-07-10T01:56:20.219Z,20
2016-07-10T01:56:30.215Z,20
2016-07-10T01:56:40.211Z,20
2016-07-10T01:56:50.215Z,19.9
2016-07-10T01:57:00.201Z,19.9
2016-07-10T01:57:10.195Z,19.9
2016-07-10T01:57:20.195Z,19.9
2016-07-10T01:57:30.187Z,20
2016-07-10T01:57:40.182Z,19.9
2016-07-10T01:57:50.179Z,19.9
2016-07-10T01:58:00.173Z,19.9
2016-07-10T01:58:10.179Z,20
2016-07-10T01:58:20.164Z,20
2016-07-10T01:58:30.159Z,20
2016-07-10T01:58:40.154Z,19.9
2016-07-10T01:58:50.150Z,19.9
2016-07-10T01:59:00.144Z,19.9
2016-07-10T01:59:10.141Z,20
2016-07-10T01:59:20.136Z,20
2016-07-10T01:59:30.132Z,19.9
2016-07-10T01:59:40.129Z,20
2016-07-10T01:59:50.122Z,20
2016-07-10T02:00:00.118Z,19.9
2016-07-10T02:00:10.114Z,19.9
2016-07-10T02:00:20.108Z,20
2016-07-10T02:00:30.105Z,20
2016-07-10T02:00:40.099Z,20
2016-07-10T02:00:50.095Z,19.9
2016-07-10T02:01:00.091Z,20
2016-07-10T02:01:10.086Z,20
2016-07-10T02:01:20.083Z,19.9
2016-07-10T02:01:30.076Z,19.9
2016-07-10T02:01:40.083Z,20
2016-07-10T02:01:50.067Z,20
2016-07-10T02:02:00.062Z,20
2016-07-10T02:02:10.059Z,20
2016-07-10T02:02:20.054Z,20
2016-07-10T02:02:30.048Z,20
2016-07-10T02:02:40.044Z,19.9
2016-07-10T02:02:50.039Z,20
2016-07-10T02:03:00.035Z,19.9
2016-07-10T02:03:10.031Z,19.9
2016-07-10T02:03:20.026Z,19.9
2016-07-10T02:03:30.021Z,19.9
2016-07-10T02:03:40.016Z,19.9
2016-07-10T02:03:50.011Z,19.9
2016-07-10T02:04:00.007Z,20
2016-07-10T02:04:10.003Z,19.9
2016-07-10T02:04:19.998Z,20
2016-07-10T02:04:29.994Z,20
2016-07-10T02:04:39.989Z,19.9
2016-07-10T02:04:49.985Z,20
2016-07-10T02:04:59.980Z,19.9
2016-07-10T02:05:09.974Z,20
2016-07-10T02:05:19.971Z,20
2016-07-10T02:05:29.967Z,19.9
2016-07-10T02:05:39.961Z,20
2016-07-10T02:05:49.957Z,19.9
2016-07-10T02:05:59.953Z,20
2016-07-10T02:06:09.948Z,20
2016-07-10T02:06:19.943Z,19.9
2016-07-10T02:06:29.938Z,20
2016-07-10T02:06:39.933Z,19.9
2016-07-10T02:06:49.928Z,20
2016-07-10T02:06:59.924Z,20
2016-07-10T02:07:09.920Z,19.9
2016-07-10T02:07:19.915Z,19.9
2016-07-10T02:07:29.911Z,20
2016-07-10T02:07:39.907Z,19.9
2016-07-10T02:07:49.902Z,19.9
2016-07-10T02:07:59.897Z,19.9
2016-07-10T02:08:09.891Z,19.9
2016-07-10T02:08:19.887Z,20
2016-07-10T02:08:29.883Z,19.9
2016-07-10T02:08:39.876Z,20
2016-07-10T02:08:49.874Z,19.9
2016-07-10T02:08:59.869Z,20
2016-07-10T02:09:09.864Z,20
2016-07-10T02:09:19.860Z,19.9
2016-07-10T02:09:29.855Z,19.9
2016-07-10T02:09:39.851Z,19.9
2016-07-10T02:09:49.846Z,19.9
2016-07-10T02:09:59.841Z,20
2016-07-10T02:10:09.837Z,20
2016-07-10T02:10:19.833Z,20
2016-07-10T02:10:29.828Z,20
2016-07-10T02:10:39.824Z,20
2016-07-10T02:10:49.818Z,19.9
2016-07-10T02:10:59.814Z,19.8
2016-07-10T02:11:09.810Z,19.9
2016-07-10T02:11:19.805Z,19.9
2016-07-10T02:11:29.800Z,20
2016-07-10T02:11:39.795Z,19.9
2016-07-10T02:11:49.790Z,19.9
2016-07-10T02:11:59.787Z,19.9
2016-07-10T02:12:09.782Z,19.9
2016-07-10T02:12:19.777Z,20
2016-07-10T02:12:29.774Z,19.9
2016-07-10T02:12:39.769Z,20
2016-07-10T02:12:49.764Z,20
2016-07-10T02:12:59.758Z,20.1
2016-07-10T02:13:09.753Z,19.9
2016-07-10T02:13:19.748Z,19.9
2016-07-10T02:13:29.744Z,19.9
2016-07-10T02:13:39.740Z,19.9
2016-07-10T02:13:49.736Z,19.9
2016-07-10T02:13:59.732Z,19.9
2016-07-10T02:14:09.727Z,20
2016-07-10T02:14:19.722Z,19.8